YTEF/TEF METAR and TAF weather

Enter ICAO airport designator
Station Type Date Time Source
YTEF METAR 2019/04/18 22:00 UTC NOAA

YTEF 182200Z AUTO 34003KT 9999 // NCD 28/16 Q1012


Station Type Date Time Source
YTEF Decoded METAR 2019/04/18 22:00 UTC NOAA

Station name not available
Apr 18, 2019 - 06:00 PM EDT / 2019.04.18 2200 UTC
Wind: from the NNW (340 degrees) at 3 MPH (3 KT):0
Visibility: greater than 7 mile(s):0
Temperature: 82 F (28 C)
Dew Point: 60 F (16 C)
Relative Humidity: 48%
Pressure (altimeter): 29.88 in. Hg (1012 hPa)
ob: YTEF 182200Z AUTO 34003KT 9999 // NCD 28/16 Q1012
cycle: 22

Station Type Date Time Source
YTEF TAF 2017/06/24 02:03 UTC NOAA

TAF TAF YTEF 240051Z 2402/2414 12005KT CAVOK
FM240500 33005KT 9999 -SHRA SCT060 BKN100

Example: see airport list